Terminal Aerodrome Forecast
Issued by NWS

Home | Current Version | Previous Version | Text Only | Print | Product List | Glossary Off
Versions: 1 2 3 4 5 6 7 8 9 10 11 12 13 14 15 16 17 18

299
FTUS43 KICT 291351 AAA
TAFSLN
TAF AMD
KSLN 291351Z 2914/3012 VRB06KT P6SM VCSH BKN080
     FM291500 05007KT P6SM SCT100
     FM291700 10007KT P6SM BKN035
     FM292100 15009KT P6SM SCT040=

USA.gov is the U.S. government's official web portal to all federal, state and local government web resources and services.